Time;durP1;ratioP1;P1;durP2;ratioP2;P2;SDS_P1;SDS_P2;PMS_P1;PMS_P2;Temp;Humidity;BMP_temperature;BMP_pressure;BME280_temperature;BME280_humidity;BME280_pressure;Samples;Min_cycle;Max_cycle;Signal;HPM_P1;HPM_P2
2022/12/05 00:00:19;;;;;;;61.00;21.07;;;;;;;;;;6156989;23;20288;-93
2022/12/05 00:03:24;;;;;;;57.70;20.80;;;;;;;;;;6171390;23;20172;-92
2022/12/05 00:06:31;;;;;;;65.30;22.80;;;;;;;;;;6171055;23;20157;-93
2022/12/05 00:09:38;;;;;;;61.10;20.97;;;;;;;;;;6172427;23;20191;-93
2022/12/05 00:12:44;;;;;;;58.80;20.53;;;;;;;;;;6170460;23;20163;-93
2022/12/05 00:15:49;;;;;;;60.10;21.27;;;;;;;;;;6171989;23;20168;-95
2022/12/05 00:18:55;;;;;;;62.10;21.10;;;;;;;;;;6171135;23;20173;-93
2022/12/05 00:22:00;;;;;;;59.57;22.37;;;;;;;;;;6169866;23;20168;-93
2022/12/05 00:25:08;;;;;;;69.73;23.77;;;;;;;;;;6171526;23;20184;-94
2022/12/05 00:28:14;;;;;;;58.33;20.97;;;;;;;;;;6169764;23;20189;-93
2022/12/05 00:31:20;;;;;;;62.00;20.93;;;;;;;;;;6170758;23;20160;-93
2022/12/05 00:34:25;;;;;;;55.03;18.93;;;;;;;;;;6170336;23;20244;-94
2022/12/05 00:37:30;;;;;;;54.30;20.07;;;;;;;;;;6168965;23;20226;-93
2022/12/05 00:40:37;;;;;;;64.00;20.93;;;;;;;;;;6170632;23;20193;-92
2022/12/05 00:43:45;;;;;;;61.60;21.30;;;;;;;;;;6153119;23;20241;-93
2022/12/05 00:46:50;;;;;;;62.70;21.80;;;;;;;;;;6170480;23;20173;-92
2022/12/05 00:49:55;;;;;;;61.93;21.60;;;;;;;;;;6169334;23;20169;-93
2022/12/05 00:53:01;;;;;;;57.07;19.77;;;;;;;;;;6151869;23;20592;-92
2022/12/05 00:56:07;;;;;;;69.33;21.33;;;;;;;;;;6169228;23;20232;-92
2022/12/05 00:59:16;;;;;;;62.47;21.37;;;;;;;;;;6173177;23;20201;-92
2022/12/05 01:02:21;;;;;;;59.90;21.97;;;;;;;;;;6170815;23;20165;-92
2022/12/05 01:05:26;;;;;;;65.73;21.60;;;;;;;;;;6171930;23;20176;-92
2022/12/05 01:08:32;;;;;;;62.77;21.33;;;;;;;;;;6171964;23;20188;-93
2022/12/05 01:11:37;;;;;;;69.43;21.70;;;;;;;;;;6149816;23;20180;-93
2022/12/05 01:14:44;;;;;;;60.63;20.80;;;;;;;;;;6143721;23;20260;-92
2022/12/05 01:17:49;;;;;;;62.63;21.90;;;;;;;;;;6129529;23;20258;-92
2022/12/05 01:20:54;;;;;;;64.13;20.67;;;;;;;;;;6023753;23;20171;-92
2022/12/05 01:24:00;;;;;;;65.70;22.23;;;;;;;;;;5998206;23;20172;-93
2022/12/05 01:27:04;;;;;;;59.97;20.57;;;;;;;;;;5997624;23;20485;-92
2022/12/05 01:30:12;;;;;;;57.70;20.17;;;;;;;;;;5998301;23;20212;-93
2022/12/05 01:33:18;;;;;;;60.83;20.73;;;;;;;;;;5998862;23;20182;-93
2022/12/05 01:36:24;;;;;;;53.97;19.60;;;;;;;;;;5998412;23;20184;-92
2022/12/05 01:39:30;;;;;;;55.30;18.93;;;;;;;;;;5999523;23;20172;-93
2022/12/05 01:42:36;;;;;;;55.03;18.27;;;;;;;;;;5998563;23;20323;-93
2022/12/05 01:45:44;;;;;;;55.83;18.97;;;;;;;;;;5999868;23;20186;-92
2022/12/05 01:48:50;;;;;;;56.57;19.97;;;;;;;;;;6000597;23;20226;-93
2022/12/05 01:52:34;;;;;;;58.50;19.23;;;;;;;;;;5998093;23;20520;-93
2022/12/05 01:55:40;;;;;;;50.03;17.90;;;;;;;;;;5997299;23;20524;-93
2022/12/05 01:58:45;;;;;;;61.20;19.77;;;;;;;;;;5997369;23;20178;-94
2022/12/05 02:01:52;;;;;;;49.40;17.77;;;;;;;;;;5998735;23;20176;-93
2022/12/05 02:04:59;;;;;;;60.43;18.93;;;;;;;;;;5996796;24;20176;-92
2022/12/05 02:08:06;;;;;;;50.17;17.27;;;;;;;;;;5997027;23;20508;-92
2022/12/05 02:11:13;;;;;;;49.87;17.43;;;;;;;;;;5997903;23;20179;-93
2022/12/05 02:14:24;;;;;;;55.57;18.17;;;;;;;;;;5999197;23;20230;-94
2022/12/05 02:17:36;;;;;;;51.63;18.97;;;;;;;;;;5998498;23;20210;-91
2022/12/05 02:20:45;;;;;;;53.47;18.47;;;;;;;;;;6047416;23;20192;-93
2022/12/05 02:24:10;;;;;;;53.40;18.20;;;;;;;;;;6129854;23;20170;-93
2022/12/05 02:27:23;;;;;;;56.50;19.73;;;;;;;;;;6112910;23;20153;-92
2022/12/05 02:30:33;;;;;;;49.03;18.63;;;;;;;;;;6111301;23;20506;-93
2022/12/05 02:33:41;;;;;;;55.40;18.77;;;;;;;;;;6111474;23;20158;-93
2022/12/05 02:36:48;;;;;;;53.70;18.10;;;;;;;;;;6112785;23;20169;-94
2022/12/05 02:39:56;;;;;;;57.23;19.17;;;;;;;;;;6112601;23;20170;-92
2022/12/05 02:46:24;;;;;;;56.07;18.60;;;;;;;;;;6128873;23;20190;-93
2022/12/05 02:49:32;;;;;;;60.13;20.37;;;;;;;;;;6112685;23;20163;-93
2022/12/05 02:52:38;;;;;;;49.80;18.40;;;;;;;;;;6110267;23;20477;-93
2022/12/05 02:55:45;;;;;;;60.17;18.30;;;;;;;;;;6111165;23;20182;-93
2022/12/05 02:58:53;;;;;;;59.27;20.70;;;;;;;;;;6111803;23;20158;-92
2022/12/05 03:02:00;;;;;;;61.17;18.40;;;;;;;;;;6111035;23;20166;-93
2022/12/05 03:05:10;;;;;;;57.20;18.73;;;;;;;;;;6112123;23;20218;-94
2022/12/05 03:08:18;;;;;;;58.30;19.33;;;;;;;;;;6110515;23;20170;-93
2022/12/05 03:11:23;;;;;;;57.73;18.90;;;;;;;;;;6113008;23;20215;-94
2022/12/05 03:14:31;;;;;;;66.03;19.73;;;;;;;;;;6111687;23;20185;-93
2022/12/05 03:17:40;;;;;;;55.27;17.50;;;;;;;;;;6111667;23;20174;-93
2022/12/05 03:20:48;;;;;;;56.03;19.07;;;;;;;;;;6134369;23;20192;-93
2022/12/05 03:23:55;;;;;;;54.97;17.53;;;;;;;;;;6110944;23;20195;-92
2022/12/05 03:27:05;;;;;;;52.47;17.97;;;;;;;;;;6113270;23;20161;-94
2022/12/05 03:30:11;;;;;;;63.73;18.97;;;;;;;;;;6113928;23;20154;-92
2022/12/05 03:33:21;;;;;;;61.50;19.60;;;;;;;;;;6113354;23;20588;-94
2022/12/05 03:36:29;;;;;;;59.50;18.77;;;;;;;;;;6112851;23;20158;-92
2022/12/05 03:39:36;;;;;;;52.80;19.20;;;;;;;;;;6111110;23;20219;-92
2022/12/05 03:42:43;;;;;;;54.90;18.53;;;;;;;;;;6110442;23;20201;-92
2022/12/05 03:45:50;;;;;;;54.47;19.07;;;;;;;;;;6112115;23;20173;-93
2022/12/05 03:48:58;;;;;;;56.37;19.30;;;;;;;;;;6111726;23;20228;-92
2022/12/05 03:52:06;;;;;;;59.87;20.07;;;;;;;;;;6110947;23;20641;-93
2022/12/05 03:55:13;;;;;;;62.63;19.83;;;;;;;;;;6109691;23;20226;-92
2022/12/05 03:58:23;;;;;;;58.20;19.90;;;;;;;;;;6110960;23;20216;-92
2022/12/05 04:01:30;;;;;;;64.50;18.30;;;;;;;;;;6111126;23;20166;-92
2022/12/05 04:04:39;;;;;;;58.53;19.40;;;;;;;;;;6111071;23;20188;-92
2022/12/05 04:07:46;;;;;;;63.57;19.40;;;;;;;;;;6111402;23;20191;-92
2022/12/05 04:10:55;;;;;;;54.87;18.30;;;;;;;;;;6110131;23;20622;-92
2022/12/05 04:14:04;;;;;;;65.53;19.03;;;;;;;;;;6110843;23;20246;-93
2022/12/05 04:17:12;;;;;;;56.10;18.60;;;;;;;;;;6111891;23;20161;-95
2022/12/05 04:23:42;;;;;;;57.63;18.17;;;;;;;;;;6152211;23;20168;-94
2022/12/05 04:26:47;;;;;;;63.33;19.77;;;;;;;;;;6170797;23;20152;-92
2022/12/05 04:29:57;;;;;;;60.47;19.50;;;;;;;;;;6168649;23;20227;-92
2022/12/05 04:33:05;;;;;;;57.93;18.13;;;;;;;;;;6171997;23;20169;-93
2022/12/05 04:36:16;;;;;;;53.27;18.60;;;;;;;;;;6170795;23;20196;-93
2022/12/05 04:39:24;;;;;;;53.27;18.03;;;;;;;;;;6171290;23;20652;-92
2022/12/05 04:42:31;;;;;;;54.07;17.57;;;;;;;;;;6172750;23;20157;-92
2022/12/05 04:45:38;;;;;;;56.93;19.00;;;;;;;;;;6155848;23;20168;-92
2022/12/05 04:48:47;;;;;;;56.43;18.40;;;;;;;;;;6172205;23;20188;-94
2022/12/05 04:51:55;;;;;;;55.33;17.83;;;;;;;;;;6171753;23;20163;-93
2022/12/05 04:55:03;;;;;;;58.30;18.33;;;;;;;;;;6172573;23;20180;-93
2022/12/05 04:58:09;;;;;;;57.27;17.80;;;;;;;;;;6172369;23;20173;-93
2022/12/05 05:01:17;;;;;;;59.40;17.47;;;;;;;;;;6154117;23;20181;-93
2022/12/05 05:08:49;;;;;;;56.13;18.20;;;;;;;;;;6175769;23;20160;-91
2022/12/05 05:11:54;;;;;;;57.10;18.33;;;;;;;;;;6171452;23;20184;-93
2022/12/05 05:14:59;;;;;;;51.87;17.27;;;;;;;;;;6171519;23;20192;-93
2022/12/05 05:18:05;;;;;;;60.93;17.93;;;;;;;;;;6172523;23;20172;-93
2022/12/05 05:21:15;;;;;;;56.33;16.67;;;;;;;;;;6170297;23;20192;-90
2022/12/05 05:24:24;;;;;;;53.90;17.90;;;;;;;;;;6172194;23;20214;-92
2022/12/05 05:27:29;;;;;;;52.53;16.63;;;;;;;;;;6156134;23;20189;-93
2022/12/05 05:30:35;;;;;;;47.27;16.57;;;;;;;;;;6171722;23;20169;-93
2022/12/05 05:33:40;;;;;;;52.20;17.03;;;;;;;;;;6172319;23;20161;-93
2022/12/05 05:36:45;;;;;;;53.60;17.03;;;;;;;;;;6172619;23;20155;-94
2022/12/05 05:39:51;;;;;;;47.00;16.07;;;;;;;;;;6171765;23;20169;-93
2022/12/05 05:42:57;;;;;;;57.47;18.20;;;;;;;;;;6172008;23;20284;-93
2022/12/05 05:46:04;;;;;;;51.17;16.90;;;;;;;;;;6156126;23;20196;-93
2022/12/05 05:49:10;;;;;;;50.80;17.93;;;;;;;;;;6171209;23;20276;-94
2022/12/05 05:52:20;;;;;;;51.70;17.93;;;;;;;;;;6172151;23;20153;-93
2022/12/05 05:55:27;;;;;;;55.87;18.50;;;;;;;;;;6153999;23;20257;-93
2022/12/05 05:58:32;;;;;;;54.93;17.33;;;;;;;;;;6171160;23;20559;-94
2022/12/05 06:01:38;;;;;;;53.10;18.00;;;;;;;;;;6154156;23;20169;-92
2022/12/05 06:04:43;;;;;;;50.20;17.00;;;;;;;;;;6169698;23;20181;-93
2022/12/05 06:07:48;;;;;;;56.00;18.40;;;;;;;;;;6171979;23;20233;-92
2022/12/05 06:10:55;;;;;;;45.17;16.43;;;;;;;;;;6172592;23;20168;-92
2022/12/05 06:14:01;;;;;;;47.03;16.30;;;;;;;;;;6173849;23;20185;-93
2022/12/05 06:17:12;;;;;;;46.10;15.20;;;;;;;;;;6173338;23;20264;-93
2022/12/05 06:20:31;;;;;;;39.70;14.97;;;;;;;;;;6173235;23;20229;-93
2022/12/05 06:23:37;;;;;;;42.87;14.13;;;;;;;;;;6170570;23;20148;-94
2022/12/05 06:26:45;;;;;;;41.10;13.83;;;;;;;;;;6174138;23;20219;-91
2022/12/05 06:29:51;;;;;;;44.70;13.83;;;;;;;;;;6174311;23;20204;-90
2022/12/05 06:36:28;;;;;;;41.53;14.33;;;;;;;;;;6156047;23;20212;-92
2022/12/05 06:39:37;;;;;;;33.23;13.33;;;;;;;;;;6176018;23;20685;-92
2022/12/05 06:46:11;;;;;;;41.13;14.53;;;;;;;;;;6172065;23;20164;-92
2022/12/05 06:49:17;;;;;;;39.93;14.17;;;;;;;;;;6170615;23;20189;-90
2022/12/05 06:52:22;;;;;;;41.80;14.80;;;;;;;;;;6173376;23;20212;-91
2022/12/05 06:55:27;;;;;;;48.13;16.03;;;;;;;;;;6173047;23;20196;-91
2022/12/05 06:58:34;;;;;;;40.07;15.00;;;;;;;;;;6171722;23;20237;-93
2022/12/05 07:01:39;;;;;;;43.10;15.33;;;;;;;;;;6171336;23;20544;-92
2022/12/05 07:04:46;;;;;;;41.00;14.57;;;;;;;;;;6169417;23;20546;-93
2022/12/05 07:07:51;;;;;;;38.57;14.50;;;;;;;;;;6154829;23;20172;-92
2022/12/05 07:10:56;;;;;;;36.73;13.17;;;;;;;;;;6170237;23;20168;-92
2022/12/05 07:14:05;;;;;;;36.13;12.57;;;;;;;;;;6154395;23;20164;-92
2022/12/05 07:17:10;;;;;;;34.80;12.43;;;;;;;;;;6171349;23;20168;-92
2022/12/05 07:20:17;;;;;;;31.93;11.87;;;;;;;;;;6177563;23;20186;-92
2022/12/05 07:23:22;;;;;;;29.07;10.83;;;;;;;;;;6140652;23;20172;-92
2022/12/05 07:26:27;;;;;;;28.00;9.93;;;;;;;;;;6140573;23;20623;-92
2022/12/05 07:29:35;;;;;;;26.10;9.70;;;;;;;;;;6140800;23;20240;-91
2022/12/05 07:32:40;;;;;;;29.27;10.33;;;;;;;;;;6142525;23;20152;-92
2022/12/05 07:35:45;;;;;;;23.47;8.93;;;;;;;;;;6125284;23;20181;-93
2022/12/05 07:38:56;;;;;;;26.43;8.80;;;;;;;;;;6141446;23;20149;-93
2022/12/05 07:42:01;;;;;;;22.07;7.63;;;;;;;;;;6142977;23;20173;-94
2022/12/05 07:45:08;;;;;;;22.70;8.23;;;;;;;;;;6144807;23;20181;-93
2022/12/05 07:48:14;;;;;;;18.77;7.60;;;;;;;;;;6141581;23;20176;-93
2022/12/05 07:51:19;;;;;;;20.93;7.07;;;;;;;;;;6143538;23;20168;-92
2022/12/05 07:54:25;;;;;;;23.33;8.53;;;;;;;;;;6142747;23;20545;-91
2022/12/05 07:57:31;;;;;;;20.90;7.67;;;;;;;;;;6124887;23;20153;-93
2022/12/05 08:00:38;;;;;;;19.73;7.60;;;;;;;;;;6140190;23;20223;-91
2022/12/05 08:03:44;;;;;;;20.73;8.13;;;;;;;;;;6141280;23;20173;-91
2022/12/05 08:06:50;;;;;;;22.73;8.00;;;;;;;;;;6142027;23;20177;-90
2022/12/05 08:09:56;;;;;;;25.77;9.60;;;;;;;;;;6123530;23;20222;-92
2022/12/05 08:13:02;;;;;;;21.97;7.67;;;;;;;;;;6143028;23;20177;-92
2022/12/05 08:16:12;;;;;;;20.57;7.63;;;;;;;;;;6143006;23;20524;-93
2022/12/05 08:19:24;;;;;;;20.93;7.90;;;;;;;;;;6143402;23;20169;-92
2022/12/05 08:22:29;;;;;;;18.70;8.37;;;;;;;;;;6164801;23;20568;-92
2022/12/05 08:25:35;;;;;;;22.77;8.97;;;;;;;;;;6171035;23;20167;-92
2022/12/05 08:28:41;;;;;;;21.70;7.90;;;;;;;;;;6171313;23;20156;-92
2022/12/05 08:40:56;;;;;;;22.97;8.27;;;;;;;;;;6190095;22;20187;-93
2022/12/05 08:44:04;;;;;;;25.27;8.37;;;;;;;;;;6262193;23;20175;-91
2022/12/05 08:47:35;;;;;;;20.10;7.83;;;;;;;;;;6261317;23;20178;-91
2022/12/05 08:50:40;;;;;;;22.00;8.20;;;;;;;;;;6262131;23;20186;-91
2022/12/05 08:53:46;;;;;;;22.53;8.17;;;;;;;;;;6260492;22;20228;-90
2022/12/05 08:56:53;;;;;;;19.67;7.50;;;;;;;;;;6260102;22;20190;-92
2022/12/05 08:59:59;;;;;;;29.40;9.40;;;;;;;;;;6261482;23;20223;-93
2022/12/05 09:03:05;;;;;;;23.23;10.67;;;;;;;;;;6262790;22;20219;-92
2022/12/05 09:06:12;;;;;;;26.23;9.33;;;;;;;;;;6262644;22;20489;-94
2022/12/05 09:09:17;;;;;;;33.57;11.90;;;;;;;;;;6261048;22;20190;-94
2022/12/05 09:12:24;;;;;;;21.10;9.47;;;;;;;;;;6260254;22;20155;-93
2022/12/05 09:15:30;;;;;;;25.03;10.00;;;;;;;;;;6260806;22;20186;-92
2022/12/05 09:18:36;;;;;;;27.43;9.37;;;;;;;;;;6262003;22;20170;-92
2022/12/05 09:21:41;;;;;;;26.57;9.73;;;;;;;;;;6262865;22;20742;-91
2022/12/05 09:24:47;;;;;;;25.60;9.23;;;;;;;;;;6264678;22;20151;-91
2022/12/05 09:27:55;;;;;;;26.17;9.37;;;;;;;;;;6261901;22;20198;-93
2022/12/05 09:31:03;;;;;;;21.00;8.27;;;;;;;;;;6264598;22;20264;-93
2022/12/05 09:34:10;;;;;;;19.87;8.83;;;;;;;;;;6264777;22;20171;-92
2022/12/05 09:37:26;;;;;;;22.83;9.13;;;;;;;;;;6264656;22;20247;-92
2022/12/05 09:40:32;;;;;;;21.07;8.57;;;;;;;;;;6266564;22;20219;-92
2022/12/05 09:43:46;;;;;;;22.10;8.63;;;;;;;;;;6263884;22;20177;-92
2022/12/05 09:47:02;;;;;;;21.30;8.97;;;;;;;;;;6264802;22;20170;-92
2022/12/05 09:50:13;;;;;;;29.07;9.47;;;;;;;;;;6264705;22;20167;-92
2022/12/05 09:53:26;;;;;;;30.83;10.47;;;;;;;;;;6264522;22;20171;-93
2022/12/05 09:56:32;;;;;;;30.27;11.30;;;;;;;;;;6262800;22;20241;-94
2022/12/05 09:59:42;;;;;;;28.17;10.00;;;;;;;;;;6261667;23;20174;-93
2022/12/05 10:02:51;;;;;;;21.47;8.57;;;;;;;;;;6262335;23;20158;-93
2022/12/05 10:06:02;;;;;;;20.47;7.50;;;;;;;;;;6262296;22;20170;-92
2022/12/05 10:09:13;;;;;;;20.53;8.03;;;;;;;;;;6262860;22;20227;-93
2022/12/05 10:12:21;;;;;;;21.20;8.00;;;;;;;;;;6261449;22;20167;-92
2022/12/05 10:15:31;;;;;;;20.53;7.97;;;;;;;;;;6261227;22;20191;-92
2022/12/05 10:18:40;;;;;;;19.87;7.67;;;;;;;;;;6263619;22;20239;-93
2022/12/05 10:21:50;;;;;;;21.90;8.23;;;;;;;;;;6263160;22;20242;-92
2022/12/05 10:24:57;;;;;;;22.17;8.97;;;;;;;;;;6260869;22;20163;-92
2022/12/05 10:28:03;;;;;;;20.53;7.87;;;;;;;;;;6262353;22;20171;-92
2022/12/05 10:31:13;;;;;;;22.77;8.50;;;;;;;;;;6262086;22;20282;-94
2022/12/05 10:34:22;;;;;;;19.37;7.53;;;;;;;;;;6261817;22;20166;-93
2022/12/05 10:37:29;;;;;;;20.50;8.10;;;;;;;;;;6264979;22;20256;-92
2022/12/05 10:40:35;;;;;;;22.03;8.30;;;;;;;;;;6260928;22;20157;-91
2022/12/05 10:43:42;;;;;;;24.10;9.07;;;;;;;;;;6262103;22;20170;-91
2022/12/05 10:47:16;;;;;;;22.60;8.20;;;;;;;;;;6259429;22;20179;-90
2022/12/05 10:50:25;;;;;;;19.17;8.70;;;;;;;;;;6265180;22;20182;-93
2022/12/05 10:56:54;;;;;;;24.77;9.60;;;;;;;;;;6260772;22;20198;-90
2022/12/05 11:00:10;;;;;;;27.87;11.07;;;;;;;;;;6260021;22;20211;-91
2022/12/05 11:03:27;;;;;;;25.70;10.63;;;;;;;;;;6260335;23;20243;-91
2022/12/05 11:06:35;;;;;;;31.37;12.80;;;;;;;;;;6260527;23;20198;-91
2022/12/05 11:09:40;;;;;;;25.37;10.53;;;;;;;;;;6259379;22;20163;-90
2022/12/05 11:12:45;;;;;;;28.93;11.80;;;;;;;;;;6257974;23;20166;-90
2022/12/05 11:15:50;;;;;;;19.43;8.33;;;;;;;;;;6259124;22;20154;-92
2022/12/05 11:18:57;;;;;;;20.20;8.00;;;;;;;;;;6261451;22;20219;-93
2022/12/05 11:22:04;;;;;;;17.27;7.73;;;;;;;;;;6259428;22;20660;-92
2022/12/05 11:25:24;;;;;;;22.80;8.43;;;;;;;;;;6259609;22;20170;-93
2022/12/05 11:28:32;;;;;;;22.17;9.53;;;;;;;;;;6260593;22;20166;-93
2022/12/05 11:31:38;;;;;;;19.80;7.63;;;;;;;;;;6260951;22;20216;-93
2022/12/05 11:38:12;;;;;;;24.03;9.07;;;;;;;;;;6261363;22;20613;-93
2022/12/05 11:41:26;;;;;;;22.20;9.10;;;;;;;;;;6259108;22;20218;-92
2022/12/05 11:44:52;;;;;;;19.87;8.40;;;;;;;;;;6263718;22;20183;-93
2022/12/05 11:48:03;;;;;;;19.00;8.10;;;;;;;;;;6263096;22;20170;-93
2022/12/05 11:51:14;;;;;;;18.87;7.87;;;;;;;;;;6260716;22;20211;-92
2022/12/05 11:54:31;;;;;;;24.57;8.90;;;;;;;;;;6260839;22;20186;-91
2022/12/05 11:57:54;;;;;;;20.10;7.00;;;;;;;;;;6259785;22;20186;-91
2022/12/05 12:01:05;;;;;;;18.87;8.63;;;;;;;;;;6260233;22;20613;-91
2022/12/05 12:04:21;;;;;;;16.40;7.27;;;;;;;;;;6260394;22;20161;-91
2022/12/05 12:07:30;;;;;;;19.50;8.83;;;;;;;;;;6261020;22;20170;-91
2022/12/05 12:10:41;;;;;;;20.80;7.93;;;;;;;;;;6261596;22;20151;-92
2022/12/05 12:13:54;;;;;;;17.57;7.00;;;;;;;;;;6262175;22;20171;-92
2022/12/05 12:17:05;;;;;;;18.97;8.07;;;;;;;;;;6259203;22;20602;-92
2022/12/05 12:20:21;;;;;;;22.97;8.27;;;;;;;;;;6258823;22;20170;-91
2022/12/05 12:23:50;;;;;;;19.83;9.63;;;;;;;;;;6259284;22;20218;-89
2022/12/05 12:27:03;;;;;;;18.87;7.43;;;;;;;;;;6261165;22;20244;-92
2022/12/05 12:30:13;;;;;;;21.07;8.50;;;;;;;;;;6261242;22;20170;-90
2022/12/05 12:33:26;;;;;;;16.40;6.93;;;;;;;;;;6260615;22;20171;-90
2022/12/05 12:36:37;;;;;;;16.40;7.00;;;;;;;;;;6260040;22;20177;-92
2022/12/05 12:39:47;;;;;;;20.47;8.97;;;;;;;;;;6259351;22;20186;-93
2022/12/05 12:43:02;;;;;;;23.73;9.47;;;;;;;;;;6258474;22;20210;-92
2022/12/05 12:46:15;;;;;;;22.57;10.43;;;;;;;;;;6259609;23;20155;-92
2022/12/05 12:49:30;;;;;;;19.53;8.80;;;;;;;;;;6259116;22;20186;-92
2022/12/05 12:52:45;;;;;;;54.67;22.67;;;;;;;;;;6260578;22;20171;-91
2022/12/05 12:55:51;;;;;;;20.63;7.77;;;;;;;;;;6262707;22;20235;-92
2022/12/05 12:59:03;;;;;;;27.90;13.43;;;;;;;;;;6262500;22;20232;-94
2022/12/05 13:02:16;;;;;;;20.00;7.90;;;;;;;;;;6262941;22;20221;-92
2022/12/05 13:05:24;;;;;;;27.83;8.73;;;;;;;;;;6265023;22;20194;-91
2022/12/05 13:08:33;;;;;;;20.13;8.07;;;;;;;;;;6264547;22;20241;-92
2022/12/05 13:11:41;;;;;;;15.93;7.07;;;;;;;;;;6263032;23;20171;-92
2022/12/05 13:14:51;;;;;;;18.30;7.80;;;;;;;;;;6262187;22;20157;-91
2022/12/05 13:17:57;;;;;;;15.60;7.47;;;;;;;;;;6260357;23;20222;-92
2022/12/05 13:21:04;;;;;;;17.67;8.13;;;;;;;;;;6262217;22;20146;-91
2022/12/05 13:24:12;;;;;;;16.10;7.30;;;;;;;;;;6265255;22;20210;-92
2022/12/05 13:27:21;;;;;;;16.43;7.07;;;;;;;;;;6263433;22;20217;-91
2022/12/05 13:34:48;;;;;;;134.80;55.30;;;;;;;;;;6264812;22;20490;-90
2022/12/05 13:44:42;;;;;;;17.93;7.77;;;;;;;;;;6263111;23;20198;-92
2022/12/05 13:47:54;;;;;;;15.60;7.23;;;;;;;;;;6262135;22;20193;-95
2022/12/05 13:51:03;;;;;;;17.17;7.23;;;;;;;;;;6262162;22;20684;-92
2022/12/05 13:54:18;;;;;;;19.03;7.77;;;;;;;;;;6262508;22;20177;-92
2022/12/05 13:57:51;;;;;;;18.90;7.93;;;;;;;;;;6263267;22;20194;-91
2022/12/05 14:01:25;;;;;;;17.60;8.30;;;;;;;;;;6263144;22;20215;-93
2022/12/05 14:04:52;;;;;;;20.73;7.93;;;;;;;;;;6263626;22;20194;-93
2022/12/05 14:08:12;;;;;;;18.90;7.43;;;;;;;;;;6261747;22;20197;-93
2022/12/05 14:11:26;;;;;;;20.83;8.53;;;;;;;;;;6266392;22;20659;-92
2022/12/05 14:14:46;;;;;;;17.13;7.13;;;;;;;;;;6264824;22;20223;-91
2022/12/05 14:17:57;;;;;;;15.23;7.33;;;;;;;;;;6265228;22;20198;-92
2022/12/05 14:21:08;;;;;;;14.67;6.20;;;;;;;;;;6264994;22;20218;-91
2022/12/05 14:24:21;;;;;;;15.93;6.70;;;;;;;;;;6266593;22;20174;-93
2022/12/05 14:27:40;;;;;;;24.93;10.40;;;;;;;;;;6266432;22;20171;-93
2022/12/05 14:30:51;;;;;;;30.30;12.60;;;;;;;;;;6264442;22;20171;-92
2022/12/05 14:34:15;;;;;;;17.87;7.37;;;;;;;;;;6262455;22;20207;-91
2022/12/05 14:37:34;;;;;;;23.17;11.07;;;;;;;;;;6266628;22;20202;-91
2022/12/05 14:40:41;;;;;;;22.10;9.10;;;;;;;;;;6264693;22;20193;-94
2022/12/05 14:43:53;;;;;;;15.23;5.90;;;;;;;;;;6261251;22;20166;-93
2022/12/05 14:47:02;;;;;;;16.43;6.70;;;;;;;;;;6263526;22;20175;-93
2022/12/05 14:50:22;;;;;;;17.30;7.63;;;;;;;;;;6264040;22;20166;-93
2022/12/05 14:53:36;;;;;;;17.70;6.70;;;;;;;;;;6263889;22;20178;-91
2022/12/05 14:56:44;;;;;;;15.27;6.63;;;;;;;;;;6263244;22;20221;-93
2022/12/05 14:59:55;;;;;;;13.13;6.50;;;;;;;;;;6263752;22;20158;-91
2022/12/05 15:03:04;;;;;;;16.37;6.43;;;;;;;;;;6263205;22;20149;-93
2022/12/05 15:06:14;;;;;;;13.47;5.90;;;;;;;;;;6263501;22;20199;-94
2022/12/05 15:09:30;;;;;;;12.80;6.33;;;;;;;;;;6263581;22;20202;-92
2022/12/05 15:12:40;;;;;;;16.23;6.87;;;;;;;;;;6260921;22;20191;-92
2022/12/05 15:15:51;;;;;;;14.70;6.63;;;;;;;;;;6260366;22;20245;-92
2022/12/05 15:18:59;;;;;;;15.67;7.57;;;;;;;;;;6262769;22;20183;-94
2022/12/05 15:22:07;;;;;;;17.77;7.10;;;;;;;;;;6261355;22;20189;-92
2022/12/05 15:25:22;;;;;;;14.73;7.03;;;;;;;;;;6262469;22;20277;-92
2022/12/05 15:28:27;;;;;;;14.67;6.53;;;;;;;;;;6260051;22;20167;-91
2022/12/05 15:31:39;;;;;;;15.40;6.57;;;;;;;;;;6245361;22;20186;-93
2022/12/05 15:34:47;;;;;;;22.73;11.00;;;;;;;;;;6264699;22;20191;-93
2022/12/05 15:37:55;;;;;;;20.33;8.77;;;;;;;;;;6266218;22;20197;-93
2022/12/05 15:41:01;;;;;;;19.63;7.57;;;;;;;;;;6263530;22;20162;-93
2022/12/05 15:44:06;;;;;;;16.00;6.23;;;;;;;;;;6262448;22;20591;-93
2022/12/05 15:47:19;;;;;;;15.93;6.93;;;;;;;;;;6264510;22;20214;-93
2022/12/05 15:50:28;;;;;;;18.83;7.50;;;;;;;;;;6265211;22;20229;-93
2022/12/05 15:53:37;;;;;;;25.70;10.13;;;;;;;;;;6265033;22;20187;-93
